createdAt,value
2023-05-07T00:00:05.892Z,100257.53
2023-05-07T00:02:38.602Z,100264.81
2023-05-07T00:05:06.511Z,100262.13
2023-05-07T00:07:34.113Z,100249.69
2023-05-07T00:10:01.552Z,100264.00
2023-05-07T00:12:34.791Z,100270.13
2023-05-07T00:15:04.295Z,100269.03
2023-05-07T00:17:34.895Z,100269.34
2023-05-07T00:20:02.178Z,100262.13
2023-05-07T00:22:33.464Z,100263.06
2023-05-07T00:25:01.359Z,100265.16
2023-05-07T00:27:32.883Z,100265.28
2023-05-07T00:30:05.781Z,100268.91
2023-05-07T00:32:38.092Z,100262.59
2023-05-07T00:35:06.787Z,100272.50
2023-05-07T00:37:33.929Z,100270.09
2023-05-07T00:40:01.075Z,100281.28
2023-05-07T00:42:29.004Z,100279.84
2023-05-07T00:44:56.342Z,100280.38
2023-05-07T00:47:23.514Z,100286.78
2023-05-07T00:49:50.783Z,100268.09
2023-05-07T00:52:18.771Z,100279.13
2023-05-07T00:54:45.897Z,100282.59
2023-05-07T00:57:13.379Z,100274.50
2023-05-07T00:59:41.889Z,100274.34
2023-05-07T01:02:09.392Z,100260.81
2023-05-07T01:04:40.050Z,100273.38
2023-05-07T01:07:07.689Z,100272.78
2023-05-07T01:09:36.556Z,100269.53
2023-05-07T01:12:04.611Z,100283.19
2023-05-07T01:14:34.072Z,100288.09
2023-05-07T01:17:01.511Z,100288.66
2023-05-07T01:19:32.885Z,100291.69
2023-05-07T01:22:05.358Z,100290.75
2023-05-07T01:24:39.421Z,100296.97
2023-05-07T01:27:08.527Z,100300.88
2023-05-07T01:29:37.146Z,100295.44
2023-05-07T01:32:04.850Z,100293.44
2023-05-07T01:34:35.932Z,100296.69
2023-05-07T01:37:04.002Z,100301.81
2023-05-07T01:39:31.634Z,100303.91
2023-05-07T01:42:00.773Z,100308.09
2023-05-07T01:44:29.173Z,100315.47
2023-05-07T01:46:57.176Z,100312.22
2023-05-07T01:49:24.251Z,100324.34
2023-05-07T01:51:51.551Z,100322.41
2023-05-07T01:54:18.814Z,100323.19
2023-05-07T01:56:51.544Z,100319.16
2023-05-07T01:59:18.622Z,100333.56
2023-05-07T02:01:45.733Z,100318.16
2023-05-07T02:04:13.425Z,100309.59
2023-05-07T02:06:40.623Z,100336.09
2023-05-07T02:09:10.085Z,100337.09
2023-05-07T02:11:38.424Z,100342.19
2023-05-07T02:14:06.667Z,100341.03
2023-05-07T02:16:34.092Z,100317.88
2023-05-07T02:19:02.170Z,100317.25
2023-05-07T02:21:32.259Z,100346.59
2023-05-07T02:23:59.369Z,100332.19
2023-05-07T02:26:27.043Z,100327.53
2023-05-07T02:28:57.846Z,100344.59
2023-05-07T02:31:25.121Z,100338.91
2023-05-07T02:33:52.208Z,100346.78
2023-05-07T02:36:19.365Z,100342.91
2023-05-07T02:38:53.104Z,100353.81
2023-05-07T02:41:21.701Z,100351.88
2023-05-07T02:43:48.929Z,100349.53
2023-05-07T02:46:18.139Z,100351.06
2023-05-07T02:48:49.381Z,100360.06
2023-05-07T02:51:17.692Z,100336.19
2023-05-07T02:53:44.889Z,100361.59
2023-05-07T02:56:12.086Z,100350.03
2023-05-07T02:58:43.196Z,100366.66
2023-05-07T03:01:11.767Z,100366.41
2023-05-07T03:03:45.437Z,100352.16
2023-05-07T03:06:12.517Z,100353.44
2023-05-07T03:08:39.603Z,100369.53
2023-05-07T03:11:06.768Z,100391.97
2023-05-07T03:13:33.888Z,100380.00
2023-05-07T03:16:03.961Z,100386.59
2023-05-07T03:18:31.108Z,100385.91
2023-05-07T03:20:58.529Z,100371.13
2023-05-07T03:23:25.872Z,100381.59
2023-05-07T03:25:53.479Z,100391.66
2023-05-07T03:28:21.494Z,100388.16
2023-05-07T03:30:54.699Z,100396.03
2023-05-07T03:33:25.041Z,100400.75
2023-05-07T03:35:52.270Z,100403.72
2023-05-07T03:38:23.698Z,100395.50
2023-05-07T03:40:51.337Z,100393.97
2023-05-07T03:43:18.528Z,100400.41
2023-05-07T03:45:51.071Z,100398.72
2023-05-07T03:48:30.144Z,100401.50
2023-05-07T03:50:59.743Z,100406.97
2023-05-07T03:53:30.793Z,100404.88
2023-05-07T03:55:58.001Z,100416.19
2023-05-07T03:58:25.105Z,100410.31
2023-05-07T04:00:54.394Z,100402.63
2023-05-07T04:03:26.742Z,100408.91
2023-05-07T04:05:54.681Z,100421.88
2023-05-07T04:08:22.120Z,100425.94
2023-05-07T04:11:01.288Z,100420.50
2023-05-07T04:13:31.596Z,100432.78
2023-05-07T04:16:01.987Z,100437.25
2023-05-07T04:18:29.733Z,100439.19
2023-05-07T04:20:57.904Z,100432.47
2023-05-07T04:23:27.983Z,100440.97
2023-05-07T04:25:56.343Z,100426.66
2023-05-07T04:28:29.697Z,100435.72
2023-05-07T04:30:57.232Z,100431.22
2023-05-07T04:33:24.590Z,100439.00
2023-05-07T04:35:51.865Z,100440.31
2023-05-07T04:38:19.491Z,100441.16
2023-05-07T04:40:49.985Z,100437.75
2023-05-07T04:43:21.772Z,100445.94
2023-05-07T04:45:52.677Z,100432.78
2023-05-07T04:48:21.660Z,100440.53
2023-05-07T04:50:51.512Z,100437.88
2023-05-07T04:53:19.953Z,100437.97
2023-05-07T04:55:48.033Z,100443.75
2023-05-07T04:58:19.047Z,100445.47
2023-05-07T05:00:48.052Z,100438.00
2023-05-07T05:03:15.177Z,100440.88
2023-05-07T05:05:42.665Z,100437.09
2023-05-07T05:08:10.181Z,100466.13
2023-05-07T05:10:55.996Z,100442.19
2023-05-07T05:13:23.196Z,100455.28
2023-05-07T05:15:51.096Z,100435.13
2023-05-07T05:18:18.596Z,100447.44
2023-05-07T05:20:46.296Z,100444.63
2023-05-07T05:23:13.567Z,100450.06
2023-05-07T05:25:41.514Z,100451.41
2023-05-07T05:28:11.626Z,100455.47
2023-05-07T05:30:39.978Z,100455.00
2023-05-07T05:33:07.131Z,100445.41
2023-05-07T05:35:34.358Z,100453.94
2023-05-07T05:38:04.925Z,100440.75
2023-05-07T05:40:34.513Z,100454.78
2023-05-07T05:43:04.038Z,100462.28
2023-05-07T05:45:37.630Z,100465.69
2023-05-07T05:48:07.239Z,100463.84
2023-05-07T05:50:53.254Z,100444.69
2023-05-07T05:53:20.807Z,100466.78
2023-05-07T05:55:48.559Z,100469.09
2023-05-07T05:58:16.419Z,100468.94
2023-05-07T06:00:53.331Z,100480.28
2023-05-07T06:03:23.516Z,100471.28
2023-05-07T06:05:51.737Z,100471.09
2023-05-07T06:08:21.375Z,100473.53
2023-05-07T06:10:48.872Z,100474.53
2023-05-07T06:13:16.983Z,100466.78
2023-05-07T06:15:44.641Z,100473.94
2023-05-07T06:18:13.977Z,100458.34
2023-05-07T06:20:41.984Z,100462.84
2023-05-07T06:23:37.801Z,100478.41
2023-05-07T06:26:06.038Z,100481.63
2023-05-07T06:28:38.580Z,100482.97
2023-05-07T06:31:18.242Z,100468.91
2023-05-07T06:33:55.164Z,100463.72
2023-05-07T06:36:28.823Z,100457.81
2023-05-07T06:39:01.620Z,100442.09
2023-05-07T06:41:29.159Z,100474.63
2023-05-07T06:44:00.420Z,100452.09
2023-05-07T06:46:36.567Z,100458.91
2023-05-07T06:49:06.115Z,100459.09
2023-05-07T06:51:33.602Z,100470.63
2023-05-07T06:54:06.601Z,100468.28
2023-05-07T06:56:36.299Z,100467.94
2023-05-07T06:59:05.114Z,100463.91
2023-05-07T07:01:36.695Z,100473.94
2023-05-07T07:04:05.214Z,100471.22
2023-05-07T07:06:33.468Z,100465.75
2023-05-07T07:09:06.547Z,100460.00
2023-05-07T07:11:34.357Z,100463.19
2023-05-07T07:14:01.706Z,100472.19
2023-05-07T07:16:32.446Z,100475.06
2023-05-07T07:19:00.880Z,100467.22
2023-05-07T07:21:31.679Z,100476.06
2023-05-07T07:23:59.851Z,100451.94
2023-05-07T07:26:26.933Z,100464.47
2023-05-07T07:28:56.648Z,100479.34
2023-05-07T07:31:25.232Z,100485.06
2023-05-07T07:33:53.194Z,100477.50
2023-05-07T07:36:21.034Z,100475.25
2023-05-07T07:38:49.267Z,100475.34
2023-05-07T07:41:18.058Z,100476.44
2023-05-07T07:43:45.547Z,100453.69
2023-05-07T07:46:12.753Z,100444.28
2023-05-07T07:48:40.500Z,100456.38
2023-05-07T07:51:10.825Z,100462.72
2023-05-07T07:53:38.358Z,100454.75
2023-05-07T07:56:09.263Z,100462.03
2023-05-07T07:58:37.914Z,100444.34
2023-05-07T08:01:05.724Z,100451.88
2023-05-07T08:03:33.742Z,100458.97
2023-05-07T08:06:12.820Z,100470.53
2023-05-07T08:08:40.720Z,100432.91
2023-05-07T08:11:08.197Z,100452.78
2023-05-07T08:13:37.509Z,100444.44
2023-05-07T08:16:05.355Z,100455.09
2023-05-07T08:18:34.324Z,100446.19
2023-05-07T08:21:06.200Z,100465.38
2023-05-07T08:23:35.545Z,100461.31
2023-05-07T08:26:04.738Z,100449.59
2023-05-07T08:28:33.152Z,100443.91
2023-05-07T08:31:02.340Z,100450.94
2023-05-07T08:33:36.801Z,100453.97
2023-05-07T08:36:04.677Z,100454.25
2023-05-07T08:38:32.536Z,100448.53
2023-05-07T08:40:59.982Z,100436.75
2023-05-07T08:43:30.507Z,100431.19
2023-05-07T08:46:01.806Z,100457.91
2023-05-07T08:48:32.435Z,100445.00
2023-05-07T08:51:17.827Z,100454.50
2023-05-07T08:53:47.271Z,100452.19
2023-05-07T08:56:20.363Z,100454.00
2023-05-07T08:58:57.814Z,100448.72
2023-05-07T09:01:25.904Z,100439.91
2023-05-07T09:03:54.172Z,100440.63
2023-05-07T09:06:23.207Z,100443.00
2023-05-07T09:08:52.979Z,100426.84
2023-05-07T09:11:24.295Z,100425.72
2023-05-07T09:14:02.349Z,100430.06
2023-05-07T09:16:34.201Z,100428.53
2023-05-07T09:19:02.236Z,100432.81
2023-05-07T09:21:29.700Z,100434.75
2023-05-07T09:23:59.672Z,100441.19
2023-05-07T09:26:36.234Z,100437.47
2023-05-07T09:29:04.956Z,100437.09
2023-05-07T09:31:32.305Z,100448.81
2023-05-07T09:34:00.183Z,100444.56
2023-05-07T09:36:30.613Z,100444.59
2023-05-07T09:39:01.135Z,100434.22
2023-05-07T09:41:31.497Z,100430.44
2023-05-07T09:44:08.232Z,100413.88
2023-05-07T09:46:44.877Z,100437.38
2023-05-07T09:49:24.293Z,100430.16
2023-05-07T09:51:56.436Z,100424.41
2023-05-07T09:54:30.223Z,100423.31
2023-05-07T09:56:59.300Z,100433.88
2023-05-07T09:59:30.425Z,100422.22
2023-05-07T10:02:03.432Z,100435.28
2023-05-07T10:04:35.434Z,100421.16
2023-05-07T10:07:04.777Z,100408.00
2023-05-07T10:09:33.521Z,100409.88
2023-05-07T10:12:00.988Z,100435.00
2023-05-07T10:14:28.680Z,100428.56
2023-05-07T10:16:56.249Z,100421.25
2023-05-07T10:19:24.181Z,100430.50
2023-05-07T10:22:00.770Z,100424.44
2023-05-07T10:24:36.986Z,100439.94
2023-05-07T10:27:12.459Z,100437.59
2023-05-07T10:29:53.821Z,100433.16
2023-05-07T10:32:21.184Z,100421.09
2023-05-07T10:34:50.389Z,100425.31
2023-05-07T10:37:18.040Z,100421.81
2023-05-07T10:39:47.238Z,100440.16
2023-05-07T10:42:15.882Z,100440.97
2023-05-07T10:44:48.934Z,100436.81
2023-05-07T10:47:23.590Z,100436.81
2023-05-07T10:50:06.646Z,100436.81
2023-05-07T10:52:38.840Z,100423.09
2023-05-07T10:55:21.365Z,100438.91
2023-05-07T10:57:57.160Z,100425.34
2023-05-07T11:03:06.381Z,100435.81
2023-05-07T11:05:40.792Z,100442.25
2023-05-07T11:09:00.694Z,100424.59
2023-05-07T11:11:56.944Z,100437.00
2023-05-07T11:14:43.395Z,100428.00
2023-05-07T11:17:28.366Z,100431.47
2023-05-07T11:20:03.802Z,100441.41
2023-05-07T11:23:01.202Z,100427.69
2023-05-07T11:25:34.690Z,100441.41
2023-05-07T11:28:23.167Z,100436.00
2023-05-07T11:31:00.882Z,100436.00
2023-05-07T11:33:29.456Z,100431.66
2023-05-07T11:35:58.458Z,100441.78
2023-05-07T11:38:32.053Z,100439.91
2023-05-07T11:41:01.802Z,100441.97
2023-05-07T11:43:29.028Z,100429.66
2023-05-07T11:45:56.216Z,100430.22
2023-05-07T11:48:26.010Z,100429.84
2023-05-07T11:50:55.730Z,100443.66
2023-05-07T11:53:26.496Z,100448.88
2023-05-07T11:55:56.755Z,100452.63
2023-05-07T11:58:26.615Z,100439.97
2023-05-07T12:00:54.837Z,100444.63
2023-05-07T12:03:29.743Z,100442.09
2023-05-07T12:05:59.221Z,100442.78
2023-05-07T12:08:27.631Z,100434.41
2023-05-07T12:10:56.373Z,100435.84
2023-05-07T12:13:27.425Z,100425.63
2023-05-07T12:15:55.565Z,100413.72
2023-05-07T12:18:23.477Z,100416.00
2023-05-07T12:20:52.714Z,100426.91
2023-05-07T12:23:22.270Z,100433.31
2023-05-07T12:25:50.949Z,100429.69
2023-05-07T12:28:19.638Z,100433.56
2023-05-07T12:30:54.525Z,100441.41
2023-05-07T12:33:25.707Z,100431.72
2023-05-07T12:35:57.129Z,100433.38
2023-05-07T12:38:24.582Z,100419.34
2023-05-07T12:40:55.807Z,100429.97
2023-05-07T12:43:26.187Z,100430.13
2023-05-07T12:45:56.794Z,100422.81
2023-05-07T12:48:24.794Z,100413.50
2023-05-07T12:50:54.130Z,100415.72
2023-05-07T12:53:23.117Z,100407.56
2023-05-07T12:55:57.918Z,100414.19
2023-05-07T12:58:31.162Z,100403.41
2023-05-07T13:01:01.103Z,100425.63
2023-05-07T13:03:33.548Z,100404.41
2023-05-07T13:06:05.536Z,100409.63
2023-05-07T13:08:46.234Z,100424.09
2023-05-07T13:11:14.423Z,100425.06
2023-05-07T13:13:42.453Z,100428.34
2023-05-07T13:16:11.587Z,100428.56
2023-05-07T13:18:40.402Z,100429.44
2023-05-07T13:21:14.403Z,100406.84
2023-05-07T13:23:42.301Z,100409.06
2023-05-07T13:26:24.815Z,100429.44
2023-05-07T13:28:56.251Z,100399.59
2023-05-07T13:31:27.298Z,100424.72
2023-05-07T13:33:54.537Z,100429.09
2023-05-07T13:36:21.810Z,100421.22
2023-05-07T13:38:52.835Z,100413.03
2023-05-07T13:41:20.159Z,100422.97
2023-05-07T13:43:47.209Z,100414.84
2023-05-07T13:46:18.395Z,100426.22
2023-05-07T13:48:45.630Z,100429.88
2023-05-07T13:51:18.142Z,100429.50
2023-05-07T13:54:07.718Z,100420.44
2023-05-07T13:56:35.215Z,100418.19
2023-05-07T13:59:04.777Z,100435.53
2023-05-07T14:01:35.068Z,100432.28
2023-05-07T14:04:02.278Z,100439.28
2023-05-07T14:06:29.325Z,100432.72
2023-05-07T14:08:59.207Z,100416.69
2023-05-07T14:11:26.608Z,100428.50
2023-05-07T14:13:53.656Z,100419.28
2023-05-07T14:16:20.727Z,100430.09
2023-05-07T14:18:48.095Z,100413.91
2023-05-07T14:21:21.353Z,100414.41
2023-05-07T14:23:51.402Z,100421.63
2023-05-07T14:26:21.909Z,100402.47
2023-05-07T14:29:00.126Z,100418.81
2023-05-07T14:31:31.107Z,100414.53
2023-05-07T14:34:01.828Z,100404.31
2023-05-07T14:36:28.879Z,100416.00
2023-05-07T14:38:56.058Z,100394.59
2023-05-07T14:41:23.776Z,100406.59
2023-05-07T14:43:56.938Z,100412.03
2023-05-07T14:46:27.117Z,100402.09
2023-05-07T14:48:57.124Z,100407.91
2023-05-07T14:51:36.744Z,100399.59
2023-05-07T14:54:08.774Z,100394.66
2023-05-07T14:57:41.502Z,100393.53
2023-05-07T15:00:00.327Z,100408.41
2023-05-07T15:02:31.879Z,100415.34
2023-05-07T15:05:01.831Z,100425.44
2023-05-07T15:07:35.515Z,100414.22
2023-05-07T15:10:02.457Z,100416.91
2023-05-07T15:12:31.490Z,100418.16
2023-05-07T15:14:58.574Z,100403.41
2023-05-07T15:17:25.720Z,100421.47
2023-05-07T15:19:54.365Z,100420.19
2023-05-07T15:22:22.817Z,100418.53
2023-05-07T15:24:49.996Z,100415.16
2023-05-07T15:27:18.207Z,100422.38
2023-05-07T15:29:45.744Z,100423.00
2023-05-07T15:32:12.982Z,100426.72
2023-05-07T15:34:41.977Z,100432.09
2023-05-07T15:37:09.301Z,100396.75
2023-05-07T15:39:40.202Z,100407.94
2023-05-07T15:42:07.473Z,100424.16
2023-05-07T15:44:35.981Z,100402.91
2023-05-07T15:47:03.223Z,100414.09
2023-05-07T15:49:30.687Z,100401.75
2023-05-07T15:52:00.909Z,100406.03
2023-05-07T15:54:27.993Z,100439.78
2023-05-07T15:56:55.170Z,100425.81
2023-05-07T15:59:22.689Z,100429.81
2023-05-07T16:01:55.497Z,100436.31
2023-05-07T16:04:22.591Z,100430.69
2023-05-07T16:06:49.776Z,100429.94
2023-05-07T16:09:16.957Z,100431.47
2023-05-07T16:11:44.101Z,100433.47
2023-05-07T16:14:12.040Z,100439.13
2023-05-07T16:16:40.965Z,100434.06
2023-05-07T16:19:08.004Z,100429.81
2023-05-07T16:21:43.731Z,100437.25
2023-05-07T16:24:11.025Z,100433.94
2023-05-07T16:26:38.333Z,100434.31
2023-05-07T16:29:08.793Z,100437.09
2023-05-07T16:31:36.828Z,100438.38
2023-05-07T16:34:04.828Z,100442.16
2023-05-07T16:36:32.126Z,100441.97
2023-05-07T16:41:40.530Z,100442.28
2023-05-07T16:44:09.570Z,100446.19
2023-05-07T16:46:36.761Z,100456.53
2023-05-07T16:49:03.917Z,100457.94
2023-05-07T16:51:33.971Z,100456.25
2023-05-07T16:54:01.196Z,100455.63
2023-05-07T16:56:28.484Z,100441.47
2023-05-07T16:58:55.939Z,100450.25
2023-05-07T17:01:23.039Z,100444.72
2023-05-07T17:03:50.903Z,100445.09
2023-05-07T17:06:18.270Z,100461.19
2023-05-07T17:08:45.532Z,100450.72
2023-05-07T17:11:12.974Z,100461.09
2023-05-07T17:13:41.208Z,100455.56
2023-05-07T17:16:08.560Z,100465.75
2023-05-07T17:18:35.872Z,100467.88
2023-05-07T17:21:03.060Z,100470.16
2023-05-07T17:23:30.203Z,100455.06
2023-05-07T17:25:58.578Z,100462.56
2023-05-07T17:28:26.649Z,100463.63
2023-05-07T17:30:53.654Z,100471.00
2023-05-07T17:33:22.475Z,100473.06
2023-05-07T17:35:50.037Z,100467.84
2023-05-07T17:38:18.353Z,100468.09
2023-05-07T17:40:46.191Z,100478.47
2023-05-07T17:43:13.277Z,100486.91
2023-05-07T17:45:40.892Z,100484.91
2023-05-07T17:48:08.349Z,100487.19
2023-05-07T17:50:38.260Z,100490.09
2023-05-07T17:53:06.206Z,100486.78
2023-05-07T17:55:40.516Z,100460.78
2023-05-07T17:58:07.792Z,100485.00
2023-05-07T18:00:36.174Z,100475.66
2023-05-07T18:03:06.647Z,100483.69
2023-05-07T18:05:36.693Z,100482.19
2023-05-07T18:08:04.019Z,100478.09
2023-05-07T18:10:31.338Z,100497.28
2023-05-07T18:12:58.617Z,100500.63
2023-05-07T18:15:25.846Z,100492.97
2023-05-07T18:17:53.118Z,100500.97
2023-05-07T18:20:20.636Z,100490.31
2023-05-07T18:22:50.537Z,100511.03
2023-05-07T18:25:18.014Z,100492.66
2023-05-07T18:27:45.666Z,100503.84
2023-05-07T18:30:13.433Z,100507.34
2023-05-07T18:32:41.139Z,100485.50
2023-05-07T18:35:11.029Z,100500.34
2023-05-07T18:37:38.110Z,100513.53
2023-05-07T18:40:06.192Z,100503.81
2023-05-07T18:42:37.287Z,100523.22
2023-05-07T18:45:05.755Z,100507.50
2023-05-07T18:47:54.100Z,100508.34
2023-05-07T18:50:42.429Z,100522.72
2023-05-07T18:53:09.597Z,100519.50
2023-05-07T18:55:36.717Z,100516.31
2023-05-07T18:58:03.812Z,100503.25
2023-05-07T19:00:30.955Z,100524.63
2023-05-07T19:02:58.103Z,100513.25
2023-05-07T19:05:25.321Z,100516.75
2023-05-07T19:07:52.321Z,100500.88
2023-05-07T19:10:19.486Z,100521.88
2023-05-07T19:12:46.877Z,100520.88
2023-05-07T19:15:14.518Z,100517.31
2023-05-07T19:17:44.424Z,100523.13
2023-05-07T19:20:11.953Z,100520.66
2023-05-07T19:22:39.312Z,100537.84
2023-05-07T19:25:07.188Z,100520.53
2023-05-07T19:27:34.519Z,100541.34
2023-05-07T19:30:01.917Z,100533.13
2023-05-07T19:32:31.929Z,100517.25
2023-05-07T19:34:59.094Z,100532.78
2023-05-07T19:37:27.959Z,100539.22
2023-05-07T19:39:55.081Z,100528.03
2023-05-07T19:42:24.457Z,100542.69
2023-05-07T19:44:59.468Z,100545.34
2023-05-07T19:47:26.917Z,100533.22
2023-05-07T19:49:56.985Z,100543.88
2023-05-07T19:52:26.298Z,100548.63
2023-05-07T19:54:53.551Z,100549.38
2023-05-07T19:57:20.828Z,100554.19
2023-05-07T19:59:47.929Z,100541.22
2023-05-07T20:02:15.676Z,100562.13
2023-05-07T20:04:49.805Z,100560.81
2023-05-07T20:07:16.893Z,100558.41
2023-05-07T20:09:43.895Z,100562.31
2023-05-07T20:12:11.094Z,100568.94
2023-05-07T20:14:38.184Z,100562.19
2023-05-07T20:17:08.885Z,100566.97
2023-05-07T20:19:36.024Z,100569.78
2023-05-07T20:22:03.153Z,100576.25
2023-05-07T20:24:30.282Z,100575.56
2023-05-07T20:26:57.561Z,100576.53
2023-05-07T20:29:26.355Z,100580.72
2023-05-07T20:31:53.654Z,100580.72
2023-05-07T20:34:20.966Z,100580.22
2023-05-07T20:36:48.035Z,100581.66
2023-05-07T20:39:16.258Z,100584.91
2023-05-07T20:41:46.643Z,100575.88
2023-05-07T20:44:13.823Z,100585.66
2023-05-07T20:46:41.058Z,100592.00
2023-05-07T20:49:14.990Z,100594.13
2023-05-07T20:51:42.518Z,100599.72
2023-05-07T20:54:09.656Z,100600.63
2023-05-07T20:56:37.153Z,100601.91
2023-05-07T20:59:05.061Z,100607.94
2023-05-07T21:01:32.313Z,100589.00
2023-05-07T21:03:59.593Z,100602.47
2023-05-07T21:06:26.832Z,100602.59
2023-05-07T21:08:54.435Z,100600.72
2023-05-07T21:11:21.840Z,100606.03
2023-05-07T21:13:52.146Z,100582.16
2023-05-07T21:16:19.418Z,100611.53
2023-05-07T21:18:46.634Z,100602.91
2023-05-07T21:21:19.006Z,100593.00
2023-05-07T21:23:46.045Z,100606.69
2023-05-07T21:26:19.624Z,100614.69
2023-05-07T21:28:46.856Z,100616.94
2023-05-07T21:31:16.582Z,100611.78
2023-05-07T21:33:44.469Z,100622.81
2023-05-07T21:36:11.840Z,100630.22
2023-05-07T21:38:41.321Z,100633.59
2023-05-07T21:41:09.040Z,100633.31
2023-05-07T21:43:37.023Z,100618.22
2023-05-07T21:46:10.575Z,100630.97
2023-05-07T21:48:38.888Z,100626.34
2023-05-07T21:51:07.648Z,100637.38
2023-05-07T21:53:35.145Z,100629.53
2023-05-07T21:56:29.424Z,100636.53
2023-05-07T21:58:56.638Z,100632.16
2023-05-07T22:01:26.940Z,100639.19
2023-05-07T22:03:56.877Z,100641.56
2023-05-07T22:06:25.355Z,100633.44
2023-05-07T22:08:53.550Z,100625.88
2023-05-07T22:11:21.278Z,100641.25
2023-05-07T22:13:48.419Z,100647.25
2023-05-07T22:16:15.792Z,100652.53
2023-05-07T22:18:43.930Z,100645.38
2023-05-07T22:21:13.071Z,100656.81
2023-05-07T22:23:40.130Z,100656.28
2023-05-07T22:26:11.872Z,100658.50
2023-05-07T22:28:39.241Z,100652.03
2023-05-07T22:31:06.800Z,100659.03
2023-05-07T22:33:33.808Z,100657.50
2023-05-07T22:36:00.930Z,100659.44
2023-05-07T22:38:27.950Z,100652.47
2023-05-07T22:40:55.057Z,100654.00
2023-05-07T22:43:22.085Z,100648.94
2023-05-07T22:45:49.179Z,100655.69
2023-05-07T22:48:18.797Z,100653.47
2023-05-07T22:50:45.909Z,100658.44
2023-05-07T22:53:13.102Z,100658.13
2023-05-07T22:55:40.118Z,100652.13
2023-05-07T22:58:10.166Z,100656.72
2023-05-07T23:00:37.919Z,100652.78
2023-05-07T23:03:05.189Z,100652.47
2023-05-07T23:05:32.303Z,100661.28
2023-05-07T23:07:59.449Z,100644.88
2023-05-07T23:10:26.571Z,100646.56
2023-05-07T23:12:53.994Z,100651.44
2023-05-07T23:15:21.452Z,100652.38
2023-05-07T23:17:49.046Z,100660.22
2023-05-07T23:20:16.456Z,100653.22
2023-05-07T23:22:43.474Z,100657.16
2023-05-07T23:25:11.503Z,100662.88
2023-05-07T23:27:38.828Z,100671.09
2023-05-07T23:30:09.651Z,100657.38
2023-05-07T23:32:39.479Z,100656.78
2023-05-07T23:35:07.092Z,100650.53
2023-05-07T23:37:34.658Z,100661.81
2023-05-07T23:40:02.126Z,100665.72
2023-05-07T23:42:31.320Z,100662.63
2023-05-07T23:44:58.404Z,100656.41
2023-05-07T23:47:25.717Z,100664.38
2023-05-07T23:49:52.834Z,100663.66
2023-05-07T23:52:20.117Z,100663.19
2023-05-07T23:54:49.516Z,100656.19
2023-05-07T23:57:19.012Z,100656.34
2023-05-07T23:59:45.984Z,100662.22
